createdAt,value
2023-02-17T00:05:42.777Z,56.7
2023-02-17T00:11:18.203Z,56.6
2023-02-17T00:16:55.510Z,57.4
2023-02-17T00:22:32.229Z,57.4
2023-02-17T00:28:10.140Z,58.4
2023-02-17T00:33:47.221Z,59.1
2023-02-17T00:39:24.292Z,59.3
2023-02-17T00:45:01.580Z,60
2023-02-17T00:50:37.234Z,60.3
2023-02-17T00:56:14.677Z,60.7
2023-02-17T01:01:50.515Z,59.8
2023-02-17T01:08:13.298Z,59.8
2023-02-17T01:13:46.280Z,60.4
2023-02-17T01:20:07.346Z,61.4
2023-02-17T01:26:17.222Z,61.2
2023-02-17T01:31:54.692Z,60.6
2023-02-17T01:37:31.368Z,60.6
2023-02-17T01:43:27.634Z,60.3
2023-02-17T01:49:02.796Z,59.9
2023-02-17T01:54:46.799Z,58.8
2023-02-17T02:01:55.548Z,58.6
2023-02-17T02:07:54.235Z,58.2
2023-02-17T02:13:27.215Z,58.2
2023-02-17T02:19:05.652Z,57.9
2023-02-17T02:24:41.750Z,57.9
2023-02-17T02:30:40.841Z,57.7
2023-02-17T02:36:28.392Z,58.5
2023-02-17T02:42:08.949Z,58.8
2023-02-17T02:47:50.332Z,58.6
2023-02-17T02:53:47.139Z,59
2023-02-17T02:59:26.019Z,59.3
2023-02-17T03:05:01.149Z,59.7
2023-02-17T03:10:36.379Z,59.7
2023-02-17T03:16:11.526Z,59.1
2023-02-17T03:21:52.464Z,57.6
2023-02-17T03:27:27.875Z,56.1
2023-02-17T03:33:03.132Z,55.1
2023-02-17T03:38:38.177Z,54.5
2023-02-17T03:44:13.151Z,54.6
2023-02-17T03:49:53.542Z,54.2
2023-02-17T03:55:28.566Z,54.9
2023-02-17T04:01:08.761Z,55
2023-02-17T04:07:30.200Z,55.4
2023-02-17T04:13:04.144Z,56.1
2023-02-17T04:18:41.723Z,56.5
2023-02-17T04:24:20.226Z,56.6
2023-02-17T04:29:55.344Z,56.8
2023-02-17T04:35:31.011Z,57
2023-02-17T04:41:09.451Z,57.2
2023-02-17T04:46:46.037Z,57.7
2023-02-17T04:52:22.082Z,57.7
2023-02-17T04:58:05.184Z,57.7
2023-02-17T05:03:53.015Z,57.8
2023-02-17T05:09:31.118Z,58.1
2023-02-17T05:15:10.703Z,58.1
2023-02-17T05:21:02.715Z,57.1
2023-02-17T05:26:58.582Z,56.3
2023-02-17T05:32:33.721Z,56.7
2023-02-17T05:38:08.941Z,56.8
2023-02-17T05:43:55.968Z,56.7
2023-02-17T05:49:31.636Z,56.8
2023-02-17T05:55:11.001Z,56.8
2023-02-17T06:00:45.821Z,57
2023-02-17T06:06:42.824Z,56.5
2023-02-17T06:12:15.954Z,56.4
2023-02-17T06:18:01.140Z,56.8
2023-02-17T06:23:36.648Z,57
2023-02-17T06:29:33.279Z,57
2023-02-17T06:35:40.939Z,57.1
2023-02-17T06:41:46.078Z,57.5
2023-02-17T06:47:51.895Z,57.1
2023-02-17T06:53:26.991Z,56.9
2023-02-17T06:59:16.425Z,56.2
2023-02-17T07:04:51.780Z,56.4
2023-02-17T07:10:33.878Z,56.1
2023-02-17T07:16:11.135Z,61.9
2023-02-17T07:21:56.936Z,64.6
2023-02-17T07:27:32.344Z,64.2
2023-02-17T07:33:07.406Z,62.2
2023-02-17T07:38:44.340Z,62.1
2023-02-17T07:44:19.811Z,61.5
2023-02-17T07:50:55.876Z,60.8
2023-02-17T07:56:50.132Z,60.9
2023-02-17T08:02:26.391Z,60.3
2023-02-17T08:08:41.501Z,63.8
2023-02-17T08:14:15.867Z,63.3
2023-02-17T08:20:09.409Z,65.1
2023-02-17T08:25:54.166Z,64
2023-02-17T08:31:29.854Z,64.4
2023-02-17T08:37:06.808Z,63.5
2023-02-17T08:42:52.720Z,63.4
2023-02-17T08:48:28.606Z,63.1
2023-02-17T08:54:04.314Z,61.8
2023-02-17T08:59:40.038Z,62.1
2023-02-17T09:05:15.475Z,61.2
2023-02-17T09:10:50.706Z,61.2
2023-02-17T09:16:26.813Z,60.1
2023-02-17T09:22:32.584Z,59.6
2023-02-17T09:28:13.282Z,59
2023-02-17T09:33:50.037Z,58.5
2023-02-17T09:39:26.443Z,55.9
2023-02-17T09:45:10.698Z,56.3
2023-02-17T09:50:50.542Z,55.7
2023-02-17T09:56:34.792Z,53.7
2023-02-17T10:02:11.279Z,54.7
2023-02-17T10:07:47.403Z,52.7
2023-02-17T10:13:32.655Z,52.4
2023-02-17T10:19:07.743Z,46.2
2023-02-17T10:24:43.933Z,45.4
2023-02-17T10:30:20.724Z,50.1
2023-02-17T10:36:04.900Z,49
2023-02-17T10:41:52.137Z,48.8
2023-02-17T10:47:28.125Z,48.8
2023-02-17T10:53:06.339Z,45.5
2023-02-17T10:58:50.783Z,45.3
2023-02-17T11:04:28.355Z,44.9
2023-02-17T11:10:25.920Z,46
2023-02-17T11:16:15.359Z,44.9
2023-02-17T11:21:51.391Z,48.1
2023-02-17T11:27:27.678Z,43.4
2023-02-17T11:33:04.066Z,44
2023-02-17T11:38:52.414Z,41.8
2023-02-17T11:44:30.494Z,44
2023-02-17T11:50:07.212Z,42.4
2023-02-17T11:55:45.362Z,42.2
2023-02-17T12:01:44.422Z,44.2
2023-02-17T12:07:25.870Z,43.4
2023-02-17T12:13:00.795Z,43.8
2023-02-17T12:18:43.512Z,42.3
2023-02-17T12:24:28.013Z,43
2023-02-17T12:30:04.355Z,44.9
2023-02-17T12:35:39.711Z,42.3
2023-02-17T12:41:23.165Z,42.8
2023-02-17T12:46:58.992Z,42.8
2023-02-17T12:52:38.443Z,42
2023-02-17T12:58:17.862Z,41
2023-02-17T13:04:14.080Z,38.9
2023-02-17T13:09:52.159Z,38.9
2023-02-17T13:15:36.942Z,40.9
2023-02-17T13:21:25.223Z,39.9
2023-02-17T13:27:00.636Z,38.9
2023-02-17T13:32:58.555Z,38.3
2023-02-17T13:38:54.662Z,37.9
2023-02-17T13:44:41.181Z,36.6
2023-02-17T13:50:18.213Z,35.8
2023-02-17T13:56:09.514Z,35
2023-02-17T14:01:48.542Z,34.3
2023-02-17T14:07:49.208Z,30.9
2023-02-17T14:13:22.787Z,25.9
2023-02-17T14:19:01.983Z,26.2
2023-02-17T14:24:46.368Z,24.3
2023-02-17T14:31:32.182Z,23.8
2023-02-17T14:37:33.751Z,23.5
2023-02-17T14:43:08.880Z,22
2023-02-17T14:48:44.117Z,22.5
2023-02-17T14:54:19.415Z,21.8
2023-02-17T14:59:54.814Z,23.2
2023-02-17T15:05:51.943Z,20.9
2023-02-17T15:11:26.178Z,21.9
2023-02-17T15:17:01.304Z,21.1
2023-02-17T15:22:54.103Z,21.6
2023-02-17T15:28:54.966Z,25.7
2023-02-17T15:34:39.673Z,26.7
2023-02-17T15:40:36.068Z,29.9
2023-02-17T15:46:28.007Z,32.9
2023-02-17T15:52:32.670Z,33.7
2023-02-17T15:58:18.976Z,35
2023-02-17T16:03:53.701Z,36.1
2023-02-17T16:09:32.935Z,36.6
2023-02-17T16:15:08.249Z,38
2023-02-17T16:21:04.715Z,38.4
2023-02-17T16:26:52.244Z,39
2023-02-17T16:32:48.571Z,39.7
2023-02-17T16:38:25.280Z,40.5
2023-02-17T16:44:02.320Z,42.5
2023-02-17T16:49:51.873Z,42.6
2023-02-17T16:55:42.614Z,42.5
2023-02-17T17:01:42.373Z,43.1
2023-02-17T17:07:42.604Z,44.8
2023-02-17T17:13:15.820Z,44.9
2023-02-17T17:19:12.450Z,46.6
2023-02-17T17:24:50.195Z,47.8
2023-02-17T17:30:29.699Z,48.6
2023-02-17T17:36:06.677Z,48.1
2023-02-17T17:41:44.822Z,48.8
2023-02-17T17:47:44.268Z,50
2023-02-17T17:53:22.976Z,50.3
2023-02-17T17:58:59.245Z,51.3
2023-02-17T18:04:36.990Z,50.9
2023-02-17T18:10:14.632Z,50.2
2023-02-17T18:15:49.761Z,50.6
2023-02-17T18:21:25.220Z,51.7
2023-02-17T18:27:00.342Z,51.8
2023-02-17T18:32:35.843Z,52.4
2023-02-17T18:38:12.125Z,53.1
2023-02-17T18:43:47.135Z,53.5
2023-02-17T18:49:25.137Z,51.9
2023-02-17T18:55:00.158Z,51.1
2023-02-17T19:00:36.337Z,50.7
2023-02-17T19:06:21.850Z,50.7
2023-02-17T19:11:56.704Z,50.5
2023-02-17T19:18:02.273Z,50.4
2023-02-17T19:23:37.821Z,50.7
2023-02-17T19:29:12.913Z,51
2023-02-17T19:34:48.390Z,51.3
2023-02-17T19:40:24.529Z,51.5
2023-02-17T19:45:59.309Z,51.7
2023-02-17T19:51:35.307Z,51.7
2023-02-17T19:57:10.553Z,51.7
2023-02-17T20:02:46.061Z,51.6
2023-02-17T20:08:43.954Z,51.6
2023-02-17T20:14:17.110Z,51.7
2023-02-17T20:19:52.099Z,51.8
2023-02-17T20:25:27.206Z,51.6
2023-02-17T20:31:03.539Z,51.9
2023-02-17T20:36:40.987Z,51.9
2023-02-17T20:42:15.958Z,52
2023-02-17T20:47:51.698Z,52
2023-02-17T20:53:27.723Z,52.1
2023-02-17T20:59:03.219Z,52.5
2023-02-17T21:04:38.400Z,52.7
2023-02-17T21:10:13.518Z,52.9
2023-02-17T21:15:49.131Z,53.2
2023-02-17T21:21:25.086Z,53.5
2023-02-17T21:27:01.136Z,53.7
2023-02-17T21:32:36.816Z,53.7
2023-02-17T21:38:26.571Z,53.9
2023-02-17T21:44:01.662Z,53.9
2023-02-17T21:49:38.187Z,53.9
2023-02-17T21:55:13.296Z,54.1
2023-02-17T22:00:48.789Z,54.2
2023-02-17T22:06:45.948Z,54.1
2023-02-17T22:12:18.926Z,54.6
2023-02-17T22:17:57.083Z,54.9
2023-02-17T22:23:32.200Z,55.2
2023-02-17T22:29:10.006Z,55.4
2023-02-17T22:34:45.411Z,55.6
2023-02-17T22:40:20.485Z,55.5
2023-02-17T22:45:55.750Z,55.6
2023-02-17T22:51:32.678Z,55.6
2023-02-17T22:57:08.216Z,55.6
2023-02-17T23:02:44.497Z,55.7
2023-02-17T23:08:46.723Z,55.6
2023-02-17T23:14:20.761Z,55.3
2023-02-17T23:20:00.811Z,55.5
2023-02-17T23:25:35.880Z,55.8
2023-02-17T23:31:17.201Z,56.2
2023-02-17T23:36:54.319Z,56.5
2023-02-17T23:42:29.435Z,56.6
2023-02-17T23:48:05.345Z,56.6
2023-02-17T23:53:41.492Z,56.5
2023-02-17T23:59:17.055Z,56.7
